Time;durP1;ratioP1;P1;durP2;ratioP2;P2;SDS_P1;SDS_P2;PMS_P1;PMS_P2;Temp;Humidity;BMP_temperature;BMP_pressure;BME280_temperature;BME280_humidity;BME280_pressure;Samples;Min_cycle;Max_cycle;Signal;HPM_P1;HPM_P2
2024/01/22 00:01:59;;;;;;;7.20;5.30;;;;;;;6.31;78.89;100602.63;5071606;28;20753;-76
2024/01/22 00:04:26;;;;;;;5.80;5.30;;;;;;;6.13;79.49;100604.31;5075476;28;20225;-76
2024/01/22 00:06:54;;;;;;;6.10;5.50;;;;;;;6.25;79.87;100593.09;5067999;28;20203;-76
2024/01/22 00:09:20;;;;;;;5.57;5.07;;;;;;;6.29;79.65;100587.06;5074574;28;20203;-76
2024/01/22 00:11:47;;;;;;;7.07;6.37;;;;;;;6.52;79.03;100560.25;5061132;28;20226;-76
2024/01/22 00:14:13;;;;;;;6.47;5.67;;;;;;;6.46;78.17;100566.34;5072413;28;20206;-76
2024/01/22 00:16:40;;;;;;;6.53;5.40;;;;;;;6.51;78.65;100600.03;5063035;28;20203;-76
2024/01/22 00:19:07;;;;;;;5.73;5.03;;;;;;;6.48;78.63;100576.69;5069032;28;20284;-76
2024/01/22 00:21:33;;;;;;;6.17;5.03;;;;;;;6.65;77.74;100595.72;5071628;28;20223;-76
2024/01/22 00:24:01;;;;;;;5.20;4.80;;;;;;;6.54;77.71;100600.03;5071915;28;20272;-76
2024/01/22 00:26:27;;;;;;;6.03;4.93;;;;;;;6.61;77.28;100591.38;5070779;28;20239;-76
2024/01/22 00:28:53;;;;;;;5.30;4.80;;;;;;;6.76;76.87;100573.22;5071475;28;20722;-76
2024/01/22 00:31:20;;;;;;;6.83;5.80;;;;;;;6.68;77.23;100558.53;5070762;28;20664;-76
2024/01/22 00:33:47;;;;;;;5.23;4.73;;;;;;;6.70;77.38;100575.84;5071336;28;20225;-76
2024/01/22 00:36:13;;;;;;;5.03;4.60;;;;;;;6.61;77.73;100542.13;5071062;28;20770;-76
2024/01/22 00:38:40;;;;;;;4.73;4.33;;;;;;;6.75;77.40;100524.78;5071140;28;20203;-76
2024/01/22 00:41:07;;;;;;;5.37;4.87;;;;;;;6.79;77.26;100546.41;5070985;28;20272;-76
2024/01/22 00:43:34;;;;;;;4.83;4.10;;;;;;;6.72;77.36;100540.38;5070894;28;20230;-76
2024/01/22 00:46:01;;;;;;;5.60;4.47;;;;;;;6.72;77.66;100563.72;5070418;28;20663;-76
2024/01/22 00:48:28;;;;;;;4.90;4.40;;;;;;;6.78;77.75;100568.03;5071426;28;20212;-76
2024/01/22 00:50:54;;;;;;;4.80;4.30;;;;;;;6.79;77.34;100543.81;5078386;28;20275;-76
2024/01/22 00:53:20;;;;;;;5.03;4.20;;;;;;;6.93;76.20;100510.06;5061981;28;20703;-76
2024/01/22 00:55:47;;;;;;;5.50;4.90;;;;;;;6.99;76.55;100545.50;5071047;28;20236;-76
2024/01/22 00:58:15;;;;;;;4.90;4.23;;;;;;;6.86;76.88;100537.75;5070739;28;20254;-76
2024/01/22 01:00:41;;;;;;;4.57;4.17;;;;;;;7.01;76.12;100539.44;5070331;28;20563;-76
2024/01/22 01:03:08;;;;;;;4.60;4.20;;;;;;;7.07;76.35;100521.25;5080725;28;20647;-76
2024/01/22 01:05:34;;;;;;;4.63;3.93;;;;;;;7.06;76.13;100523.88;5067969;28;20207;-76
2024/01/22 01:08:01;;;;;;;4.30;3.90;;;;;;;6.90;76.21;100508.34;5074916;28;20288;-76
2024/01/22 01:10:28;;;;;;;3.80;3.50;;;;;;;7.13;77.06;100479.69;5066814;28;20265;-76
2024/01/22 01:12:54;;;;;;;5.53;4.50;;;;;;;7.04;76.54;100458.97;5075009;28;20223;-76
2024/01/22 01:15:23;;;;;;;4.27;3.87;;;;;;;7.16;76.59;100438.16;5073908;28;20205;-76
2024/01/22 01:17:49;;;;;;;4.37;3.90;;;;;;;7.13;77.30;100400.97;5075117;28;20204;-76
2024/01/22 01:20:15;;;;;;;4.23;3.67;;;;;;;7.01;78.04;100403.63;5074433;28;20208;-76
2024/01/22 01:22:42;;;;;;;4.80;4.30;;;;;;;6.94;78.08;100400.22;5074437;28;20220;-76
2024/01/22 01:25:08;;;;;;;5.67;3.97;;;;;;;6.99;77.63;100388.06;5074410;28;20221;-76
2024/01/22 01:27:35;;;;;;;4.43;4.03;;;;;;;6.92;78.09;100383.78;5074417;28;20260;-76
2024/01/22 01:30:01;;;;;;;4.37;3.97;;;;;;;6.85;78.36;100400.25;5073662;28;20280;-76
2024/01/22 01:32:29;;;;;;;4.27;3.87;;;;;;;6.93;77.65;100385.50;5066161;28;20726;-76
2024/01/22 01:34:55;;;;;;;4.97;3.67;;;;;;;7.09;77.91;100349.94;5082875;28;20192;-76
2024/01/22 01:37:22;;;;;;;4.27;3.70;;;;;;;7.01;77.65;100373.34;5074187;28;20212;-76
2024/01/22 01:39:48;;;;;;;4.20;3.67;;;;;;;7.03;77.54;100350.84;5074273;28;20203;-76
2024/01/22 01:42:14;;;;;;;4.00;3.50;;;;;;;7.03;78.08;100343.06;5072705;28;20232;-76
2024/01/22 01:44:50;;;;;;;5.57;3.80;;;;;;;7.09;77.35;100309.28;5071121;28;20220;-76
2024/01/22 01:47:16;;;;;;;4.60;3.30;;;;;;;7.20;77.51;100344.69;5081683;28;20210;-76
2024/01/22 01:49:45;;;;;;;5.33;3.77;;;;;;;7.30;77.01;100338.56;5071797;28;20204;-76
2024/01/22 01:52:13;;;;;;;4.10;3.60;;;;;;;7.27;76.99;100323.00;5077313;28;20227;-75
2024/01/22 01:54:41;;;;;;;4.10;3.70;;;;;;;7.31;77.18;100301.31;5077471;28;20220;-76
2024/01/22 01:57:07;;;;;;;4.83;3.23;;;;;;;7.27;77.44;100279.72;5074021;28;20207;-76
2024/01/22 01:59:35;;;;;;;4.17;3.77;;;;;;;7.18;77.25;100282.41;5073359;28;20211;-76
2024/01/22 02:02:02;;;;;;;3.73;3.37;;;;;;;7.38;76.67;100273.59;5074112;28;20778;-76
2024/01/22 02:04:28;;;;;;;4.33;3.67;;;;;;;7.50;76.29;100295.13;5073694;28;20227;-76
2024/01/22 02:06:56;;;;;;;4.53;3.20;;;;;;;7.57;76.85;100249.16;5073626;28;20201;-76
2024/01/22 02:09:23;;;;;;;4.03;2.93;;;;;;;7.35;76.63;100311.69;5073708;28;20207;-75
2024/01/22 02:11:49;;;;;;;4.00;3.50;;;;;;;7.40;77.47;100285.69;5073941;28;20220;-76
2024/01/22 02:14:15;;;;;;;4.57;3.33;;;;;;;7.44;78.22;100238.03;5072233;28;20584;-76
2024/01/22 02:16:43;;;;;;;3.87;3.20;;;;;;;7.52;78.55;100212.84;5074018;28;20210;-76
2024/01/22 02:19:10;;;;;;;5.23;3.20;;;;;;;7.49;78.60;100215.50;5073580;28;20365;-76
2024/01/22 02:21:36;;;;;;;4.40;3.80;;;;;;;7.58;78.33;100211.06;5073164;28;20224;-76
2024/01/22 02:24:04;;;;;;;3.87;2.80;;;;;;;7.56;78.07;100177.31;5073342;28;20286;-76
2024/01/22 02:26:30;;;;;;;3.60;3.30;;;;;;;7.54;78.30;100143.56;5073769;28;20230;-76
2024/01/22 02:28:56;;;;;;;4.33;3.10;;;;;;;7.51;79.64;100129.75;5072774;28;20261;-76
2024/01/22 02:31:23;;;;;;;3.67;2.97;;;;;;;7.63;79.13;100097.56;5073421;28;20234;-76
2024/01/22 02:33:49;;;;;;;3.70;3.40;;;;;;;7.73;78.59;100115.66;5076160;28;20249;-76
2024/01/22 02:36:15;;;;;;;5.47;3.40;;;;;;;7.68;78.85;100133.00;5070852;28;20206;-76
2024/01/22 02:38:42;;;;;;;3.47;3.17;;;;;;;7.75;78.15;100100.91;5072914;28;20201;-76
2024/01/22 02:41:09;;;;;;;3.50;3.20;;;;;;;7.73;78.28;100087.06;5073196;28;20225;-76
2024/01/22 02:43:36;;;;;;;3.30;3.00;;;;;;;7.67;78.42;100062.88;5072739;28;20197;-76
2024/01/22 02:46:02;;;;;;;3.10;2.83;;;;;;;7.75;78.48;100081.88;5072842;28;20200;-76
2024/01/22 02:48:28;;;;;;;4.93;3.30;;;;;;;7.80;78.25;100084.38;5073084;28;20671;-76
2024/01/22 02:50:55;;;;;;;2.80;2.60;;;;;;;7.81;78.21;100078.28;5072617;28;20223;-75
2024/01/22 02:53:21;;;;;;;3.83;3.30;;;;;;;7.77;77.37;100111.28;5072368;28;20267;-76
2024/01/22 02:55:47;;;;;;;4.60;3.50;;;;;;;7.79;77.28;100093.94;5073185;28;20266;-75
2024/01/22 02:58:15;;;;;;;3.70;2.90;;;;;;;8.01;77.32;100081.50;5080666;28;20208;-76
2024/01/22 03:00:41;;;;;;;3.10;2.60;;;;;;;7.89;77.19;100086.88;5064836;28;20234;-75
2024/01/22 03:03:08;;;;;;;4.30;3.00;;;;;;;7.96;77.20;100112.72;5072997;28;20209;-76
2024/01/22 03:05:34;;;;;;;3.20;2.60;;;;;;;8.04;77.04;100088.38;5072401;28;20224;-76
2024/01/22 03:08:00;;;;;;;2.90;2.50;;;;;;;7.90;77.55;100080.78;5074193;28;20610;-75
2024/01/22 03:10:27;;;;;;;2.93;2.60;;;;;;;8.02;77.41;100054.59;5070783;28;20232;-76
2024/01/22 03:12:53;;;;;;;3.00;2.53;;;;;;;8.19;76.94;100069.97;5072724;28;20249;-76
2024/01/22 03:15:21;;;;;;;6.80;2.83;;;;;;;8.16;76.73;100076.06;5072047;28;20726;-76
2024/01/22 03:17:47;;;;;;;3.00;2.70;;;;;;;8.19;76.72;100092.53;5076229;28;20287;-76
2024/01/22 03:20:13;;;;;;;3.50;2.67;;;;;;;8.17;76.39;100128.94;5069161;28;20201;-75
2024/01/22 03:22:40;;;;;;;3.80;2.87;;;;;;;8.21;76.78;100086.41;5071971;28;20220;-75
2024/01/22 03:25:07;;;;;;;3.03;2.77;;;;;;;8.33;76.54;100104.41;5072091;28;20225;-76
2024/01/22 03:27:33;;;;;;;2.50;2.17;;;;;;;8.26;76.55;100099.31;5071348;28;20205;-76
2024/01/22 03:30:00;;;;;;;3.30;2.47;;;;;;;8.32;76.00;100140.84;5071402;28;20207;-76
2024/01/22 03:32:28;;;;;;;3.70;2.50;;;;;;;8.35;76.12;100113.06;5072061;28;20290;-76
2024/01/22 03:34:55;;;;;;;3.00;2.70;;;;;;;8.26;76.59;100138.31;5078252;28;20253;-76
2024/01/22 03:37:21;;;;;;;3.87;2.70;;;;;;;8.25;76.75;100131.44;5055953;28;20730;-76
2024/01/22 03:39:47;;;;;;;2.97;2.10;;;;;;;8.38;76.61;100124.28;5065243;28;20209;-75
2024/01/22 03:42:14;;;;;;;2.60;2.40;;;;;;;8.15;76.55;100118.53;5072128;28;20262;-75
2024/01/22 03:44:40;;;;;;;2.83;2.40;;;;;;;8.24;76.26;100111.50;5071100;28;20764;-76
2024/01/22 03:47:07;;;;;;;2.50;2.30;;;;;;;8.31;76.00;100113.97;5072095;28;20204;-76
2024/01/22 03:49:34;;;;;;;2.53;2.17;;;;;;;8.33;75.94;100147.78;5077249;28;20205;-76
2024/01/22 03:52:01;;;;;;;2.90;2.47;;;;;;;8.22;76.52;100115.84;5068646;28;20280;-76
2024/01/22 03:54:27;;;;;;;3.50;2.67;;;;;;;8.39;76.44;100128.63;5070991;28;20257;-76
2024/01/22 03:56:53;;;;;;;3.20;2.77;;;;;;;8.38;76.15;100106.94;5074602;28;20201;-75
2024/01/22 03:59:20;;;;;;;3.93;2.63;;;;;;;8.42;76.23;100116.44;5068300;28;20262;-76
2024/01/22 04:01:46;;;;;;;2.67;2.47;;;;;;;8.40;76.30;100107.78;5071807;28;20221;-76
2024/01/22 04:04:13;;;;;;;3.00;2.30;;;;;;;8.28;76.63;100084.56;5071688;28;20289;-76
2024/01/22 04:06:40;;;;;;;2.73;2.10;;;;;;;8.22;76.89;100056.06;5063273;28;20204;-76
2024/01/22 04:09:07;;;;;;;3.20;2.63;;;;;;;8.42;76.38;100072.22;5070833;28;20201;-75
2024/01/22 04:11:33;;;;;;;1.97;1.87;;;;;;;8.46;76.29;100086.03;5071736;28;20221;-76
2024/01/22 04:13:59;;;;;;;2.37;2.17;;;;;;;8.30;77.13;100096.66;5071064;28;20664;-75
2024/01/22 04:16:26;;;;;;;4.47;2.50;;;;;;;8.20;77.20;100091.63;5071586;28;20266;-75
2024/01/22 04:18:52;;;;;;;2.37;2.10;;;;;;;8.39;76.71;100067.06;5071502;28;20201;-75
2024/01/22 04:21:18;;;;;;;2.80;2.50;;;;;;;8.34;77.15;100066.25;5071030;28;20229;-76
2024/01/22 04:23:46;;;;;;;3.83;2.20;;;;;;;8.30;76.74;100064.59;5070947;28;20574;-75
2024/01/22 04:26:12;;;;;;;2.67;2.10;;;;;;;8.43;76.89;100063.56;5071211;28;20648;-75
2024/01/22 04:28:38;;;;;;;2.42;2.22;;;;;;;8.40;76.83;100058.34;5070631;28;20492;-75
2024/01/22 04:31:06;;;;;;;2.87;2.20;;;;;;;8.48;76.50;100069.56;5071028;28;20228;-76
2024/01/22 04:33:33;;;;;;;3.03;2.10;;;;;;;8.39;76.83;100074.84;5071426;28;20287;-76
2024/01/22 04:35:59;;;;;;;3.30;2.60;;;;;;;8.50;76.38;100087.72;5070921;28;20652;-76
2024/01/22 04:38:26;;;;;;;5.57;2.10;;;;;;;8.14;77.25;100080.41;5069002;28;20684;-74
2024/01/22 04:40:53;;;;;;;2.60;2.20;;;;;;;8.45;77.43;100067.00;5064229;28;20201;-75
2024/01/22 04:43:21;;;;;;;3.53;2.10;;;;;;;8.51;76.63;100059.06;5078612;28;20215;-76
2024/01/22 04:45:48;;;;;;;3.57;2.27;;;;;;;8.40;76.30;100063.56;5063231;28;20225;-75
2024/01/22 04:48:14;;;;;;;2.70;2.20;;;;;;;8.49;77.21;100058.25;5070753;28;20208;-75
2024/01/22 04:50:41;;;;;;;1.97;1.80;;;;;;;8.44;77.11;100051.41;5070417;28;20257;-75
2024/01/22 04:53:07;;;;;;;2.30;1.83;;;;;;;8.35;77.04;100061.03;5070939;28;20204;-75
2024/01/22 04:55:33;;;;;;;4.20;2.23;;;;;;;8.59;76.73;100034.69;5070823;28;20258;-75
2024/01/22 04:58:01;;;;;;;3.83;2.30;;;;;;;8.52;76.19;100054.72;5071813;28;20205;-76
2024/01/22 05:00:28;;;;;;;2.20;2.00;;;;;;;8.65;76.05;100050.19;5070255;28;20210;-76
2024/01/22 05:02:54;;;;;;;3.20;2.00;;;;;;;8.61;76.58;100059.78;5070964;28;20221;-76
2024/01/22 05:05:20;;;;;;;2.10;1.90;;;;;;;8.54;76.93;100048.63;5070757;28;20225;-76
2024/01/22 05:07:47;;;;;;;2.00;1.80;;;;;;;8.55;76.75;100054.69;5071122;28;20279;-76
2024/01/22 05:10:15;;;;;;;2.00;1.60;;;;;;;8.53;76.17;100049.50;5069196;28;20250;-76
2024/01/22 05:12:41;;;;;;;2.43;1.90;;;;;;;8.80;75.53;100047.31;5068868;28;20248;-76
2024/01/22 05:15:11;;;;;;;2.67;1.77;;;;;;;8.85;75.24;100058.50;5070004;28;20559;-76
2024/01/22 05:17:38;;;;;;;3.67;1.87;;;;;;;8.75;75.77;100076.00;5071112;28;20205;-76
2024/01/22 05:20:06;;;;;;;2.37;1.70;;;;;;;8.65;75.71;100076.22;5070743;28;20204;-76
2024/01/22 05:22:32;;;;;;;2.23;1.80;;;;;;;8.71;76.11;100070.91;5068666;28;20308;-75
2024/01/22 05:24:58;;;;;;;2.40;1.77;;;;;;;8.85;75.88;100053.28;5078588;28;20220;-75
2024/01/22 05:27:25;;;;;;;3.30;1.57;;;;;;;8.86;75.15;100065.44;5070598;28;20205;-76
2024/01/22 05:29:51;;;;;;;2.00;1.70;;;;;;;8.78;75.80;100059.50;5069476;28;20205;-76
2024/01/22 05:32:19;;;;;;;1.77;1.50;;;;;;;8.71;77.17;100031.88;5070226;28;20646;-76
2024/01/22 05:34:45;;;;;;;3.10;1.70;;;;;;;8.86;78.17;100000.38;5070453;28;20208;-76
2024/01/22 05:37:11;;;;;;;3.00;1.63;;;;;;;8.87;78.03;99993.41;5070424;28;20208;-76
2024/01/22 05:39:38;;;;;;;2.00;1.80;;;;;;;8.87;79.27;99959.56;5068960;28;20734;-76
2024/01/22 05:42:06;;;;;;;1.63;1.53;;;;;;;8.85;78.93;99962.19;5070545;28;20278;-76
2024/01/22 05:44:32;;;;;;;2.77;1.60;;;;;;;8.73;79.07;99939.88;5068090;28;20701;-76
2024/01/22 05:46:59;;;;;;;1.57;1.40;;;;;;;8.82;80.21;99918.03;5064251;28;20197;-76
2024/01/22 05:49:26;;;;;;;2.10;1.70;;;;;;;8.91;81.15;99876.19;5078967;28;20234;-76
2024/01/22 05:51:53;;;;;;;2.47;1.80;;;;;;;8.63;82.68;99846.44;5066691;28;20224;-75
2024/01/22 05:54:19;;;;;;;2.73;1.67;;;;;;;8.72;84.65;99753.44;5073537;28;20213;-76
2024/01/22 05:56:45;;;;;;;2.33;1.83;;;;;;;8.61;86.58;99720.75;5073852;28;20258;-76
2024/01/22 05:59:12;;;;;;;2.07;1.87;;;;;;;8.55;87.79;99667.94;5073557;28;20243;-76
2024/01/22 06:01:38;;;;;;;2.57;1.67;;;;;;;8.61;89.22;99629.69;5074106;28;20221;-76
2024/01/22 06:04:06;;;;;;;2.00;1.57;;;;;;;8.58;88.48;99598.53;5079963;28;20228;-76
2024/01/22 06:06:34;;;;;;;4.13;1.73;;;;;;;8.48;90.55;99551.09;5057435;28;20221;-76
2024/01/22 06:09:00;;;;;;;3.03;1.80;;;;;;;8.59;90.42;99535.22;5067384;28;20200;-76
2024/01/22 06:11:27;;;;;;;1.70;1.60;;;;;;;8.63;90.05;99534.25;5073739;28;20229;-76
2024/01/22 06:13:54;;;;;;;2.93;1.70;;;;;;;8.44;91.15;99524.28;5072801;28;20288;-76
2024/01/22 06:16:21;;;;;;;3.07;1.63;;;;;;;8.43;91.40;99512.19;5073875;28;20209;-76
2024/01/22 06:18:48;;;;;;;3.23;1.80;;;;;;;8.57;91.00;99485.00;5073870;28;20205;-76
2024/01/22 06:21:14;;;;;;;1.70;1.60;;;;;;;8.50;91.95;99482.56;5074839;28;20239;-76
2024/01/22 06:23:42;;;;;;;2.20;1.47;;;;;;;8.55;91.35;99472.03;5072201;28;20270;-76
2024/01/22 06:26:09;;;;;;;2.20;1.50;;;;;;;8.54;91.88;99450.38;5073385;28;20221;-76
2024/01/22 06:28:36;;;;;;;3.53;2.07;;;;;;;8.68;91.18;99455.19;5073766;28;20258;-76
2024/01/22 06:31:02;;;;;;;2.43;2.23;;;;;;;8.43;92.68;99468.00;5072890;28;20259;-76
2024/01/22 06:33:29;;;;;;;3.53;1.97;;;;;;;8.55;92.93;99467.66;5073621;28;20225;-76
2024/01/22 06:35:55;;;;;;;2.10;1.60;;;;;;;8.38;93.99;99437.75;5073196;28;20194;-76
2024/01/22 06:38:21;;;;;;;1.40;1.30;;;;;;;8.48;93.83;99421.94;5073419;28;20205;-76
2024/01/22 06:40:49;;;;;;;2.03;1.63;;;;;;;8.57;93.76;99464.19;5072562;28;20200;-76
2024/01/22 06:43:15;;;;;;;1.33;1.23;;;;;;;8.56;94.07;99421.69;5073600;28;20636;-76
2024/01/22 06:45:43;;;;;;;1.90;1.57;;;;;;;8.66;92.82;99423.16;5074724;28;20776;-76
2024/01/22 06:48:09;;;;;;;1.57;1.40;;;;;;;8.72;93.32;99440.34;5064766;28;20214;-76
2024/01/22 06:50:35;;;;;;;1.60;1.50;;;;;;;8.76;92.67;99441.97;5070626;28;20205;-76
2024/01/22 06:53:03;;;;;;;1.40;1.30;;;;;;;8.70;93.82;99453.41;5078114;28;20220;-76
2024/01/22 06:55:30;;;;;;;1.97;1.37;;;;;;;8.89;92.83;99432.91;5072846;28;20216;-76
2024/01/22 06:57:57;;;;;;;1.50;1.30;;;;;;;8.66;93.49;99464.78;5073237;28;20278;-76
2024/01/22 07:00:24;;;;;;;2.60;1.30;;;;;;;8.71;93.37;99477.66;5071940;28;20260;-76
2024/01/22 07:02:50;;;;;;;1.60;1.27;;;;;;;8.82;93.51;99452.22;5077408;28;20233;-76
2024/01/22 07:05:16;;;;;;;1.53;1.20;;;;;;;8.90;93.04;99445.03;5074494;28;20602;-76
2024/01/22 07:07:43;;;;;;;2.07;1.53;;;;;;;8.83;93.50;99421.84;5065838;28;20262;-76
2024/01/22 07:10:11;;;;;;;2.30;1.30;;;;;;;8.81;94.36;99453.09;5075428;28;20267;-76
2024/01/22 07:12:40;;;;;;;1.03;1.00;;;;;;;8.91;93.95;99444.13;5070496;28;20723;-76
2024/01/22 07:15:12;;;;;;;1.17;1.07;;;;;;;8.77;94.54;99453.25;5072150;28;20263;-76
2024/01/22 07:17:38;;;;;;;1.60;1.30;;;;;;;8.87;93.78;99467.69;5074033;28;20213;-76
2024/01/22 07:20:06;;;;;;;2.27;1.00;;;;;;;8.86;92.33;99477.25;5065655;28;20205;-76
2024/01/22 07:22:32;;;;;;;1.20;1.10;;;;;;;9.14;91.99;99481.69;5069427;28;20286;-76
2024/01/22 07:24:58;;;;;;;0.90;0.90;;;;;;;9.11;92.01;99542.50;5072510;28;20271;-75
2024/01/22 07:27:25;;;;;;;1.80;0.80;;;;;;;9.04;91.87;99553.97;5073131;28;20205;-77
2024/01/22 07:29:51;;;;;;;1.20;1.10;;;;;;;9.17;91.31;99562.31;5075129;28;20204;-77
2024/01/22 07:32:19;;;;;;;0.83;0.70;;;;;;;9.27;90.46;99560.31;5063686;28;20237;-77
2024/01/22 07:34:45;;;;;;;1.17;0.80;;;;;;;9.23;90.35;99597.75;5072526;28;20205;-77
2024/01/22 07:37:11;;;;;;;2.50;0.70;;;;;;;9.35;90.10;99607.81;5075811;28;20263;-77
2024/01/22 07:39:38;;;;;;;1.47;1.00;;;;;;;9.47;90.27;99584.03;5071215;28;20255;-77
2024/01/22 07:42:05;;;;;;;1.10;0.90;;;;;;;9.59;89.65;99582.81;5074774;28;20246;-77
2024/01/22 07:44:31;;;;;;;0.50;0.50;;;;;;;9.64;88.67;99587.94;5072546;28;20342;-77
2024/01/22 07:46:58;;;;;;;0.97;0.80;;;;;;;9.56;88.48;99636.78;5070462;28;20317;-77
2024/01/22 07:49:26;;;;;;;1.77;0.80;;;;;;;9.53;88.35;99635.09;5068300;28;20219;-76
2024/01/22 07:51:52;;;;;;;1.07;0.93;;;;;;;9.57;88.05;99649.75;5071363;28;20225;-77
2024/01/22 07:54:18;;;;;;;0.80;0.80;;;;;;;9.67;87.15;99666.88;5076981;28;20231;-79
2024/01/22 07:56:45;;;;;;;1.13;0.80;;;;;;;9.42;86.92;99686.66;5078268;28;20287;-80
2024/01/22 07:59:11;;;;;;;0.60;0.60;;;;;;;9.58;86.76;99674.09;5070289;28;20200;-79
2024/01/22 08:01:37;;;;;;;0.50;0.50;;;;;;;9.78;86.67;99708.25;5077267;28;20220;-78
2024/01/22 08:04:05;;;;;;;0.80;0.80;;;;;;;9.65;86.51;99714.69;5068695;28;20201;-79
2024/01/22 08:06:32;;;;;;;0.90;0.80;;;;;;;9.76;86.02;99706.59;5073175;28;20274;-77
2024/01/22 08:09:00;;;;;;;7.50;2.43;;;;;;;9.91;86.32;99735.72;5068238;28;20194;-78
2024/01/22 08:11:26;;;;;;;0.70;0.70;;;;;;;9.80;84.62;99732.53;5083071;28;20216;-78
2024/01/22 08:13:53;;;;;;;1.83;0.80;;;;;;;10.01;84.78;99733.69;5055290;28;20210;-77
2024/01/22 08:16:19;;;;;;;1.33;0.80;;;;;;;10.05;84.40;99764.00;5068760;28;20193;-78
2024/01/22 08:18:47;;;;;;;1.97;1.20;;;;;;;10.17;84.26;99767.16;5076975;28;20548;-78
2024/01/22 08:21:13;;;;;;;0.70;0.70;;;;;;;9.92;83.76;99780.88;5080502;28;20251;-79
2024/01/22 08:23:41;;;;;;;0.73;0.73;;;;;;;10.02;83.81;99800.56;5081177;28;20219;-77
2024/01/22 08:26:07;;;;;;;1.07;0.80;;;;;;;10.06;84.55;99772.69;5084435;28;20217;-77
2024/01/22 08:28:33;;;;;;;1.07;0.90;;;;;;;10.05;83.30;99782.25;5081189;28;20267;-78
2024/01/22 08:31:00;;;;;;;0.97;0.80;;;;;;;9.99;84.18;99760.69;5065685;28;20225;-78
2024/01/22 08:33:26;;;;;;;1.57;0.80;;;;;;;10.03;83.82;99755.38;5075435;28;20208;-78
2024/01/22 08:35:52;;;;;;;1.27;0.87;;;;;;;10.10;84.45;99743.84;5074631;28;20270;-78
2024/01/22 08:38:19;;;;;;;1.03;0.80;;;;;;;9.84;85.23;99741.13;5074082;28;20205;-77
2024/01/22 08:40:47;;;;;;;2.27;0.93;;;;;;;9.96;85.05;99714.72;5072202;28;20205;-77
2024/01/22 08:43:13;;;;;;;1.43;0.73;;;;;;;10.06;84.46;99726.59;5074978;28;20220;-81
2024/01/22 08:45:39;;;;;;;0.93;0.60;;;;;;;9.54;87.26;99725.41;5076931;28;20270;-80
2024/01/22 08:48:06;;;;;;;1.20;0.70;;;;;;;9.77;87.99;99683.06;5078271;28;20201;-80
2024/01/22 08:50:33;;;;;;;1.57;0.83;;;;;;;9.70;89.35;99661.56;5077813;28;20205;-79
2024/01/22 08:52:59;;;;;;;1.43;0.70;;;;;;;9.58;90.51;99617.59;5074734;28;20224;-79
2024/01/22 08:55:26;;;;;;;0.70;0.70;;;;;;;9.50;91.89;99580.50;5075988;28;20733;-79
2024/01/22 08:57:55;;;;;;;0.43;0.43;;;;;;;9.47;92.96;99563.19;5073837;28;20205;-80
2024/01/22 09:00:22;;;;;;;0.70;0.70;;;;;;;9.51;93.07;99543.13;5076097;28;20223;-79
2024/01/22 09:02:49;;;;;;;1.20;0.70;;;;;;;9.53;92.40;99533.50;5070856;28;20217;-78
2024/01/22 09:05:17;;;;;;;0.90;0.70;;;;;;;9.60;92.42;99526.38;5089850;28;20192;-79
2024/01/22 09:07:43;;;;;;;0.70;0.70;;;;;;;9.49;93.20;99530.16;5092368;28;20217;-78
2024/01/22 09:10:11;;;;;;;1.23;1.07;;;;;;;9.51;93.76;99506.66;5095076;28;20197;-78
2024/01/22 09:12:38;;;;;;;0.77;0.60;;;;;;;9.60;93.33;99503.78;5094395;28;20208;-78
2024/01/22 09:15:07;;;;;;;2.50;0.70;;;;;;;9.27;94.43;99516.03;5077157;28;20197;-78
2024/01/22 09:17:35;;;;;;;0.83;0.70;;;;;;;9.31;95.97;99474.22;5074280;28;20206;-78
2024/01/22 09:20:02;;;;;;;0.70;0.70;;;;;;;9.32;96.71;99465.53;5073374;28;20749;-78
2024/01/22 09:22:28;;;;;;;1.07;0.70;;;;;;;9.36;96.26;99452.44;5072780;28;20224;-78
2024/01/22 09:24:55;;;;;;;0.80;0.80;;;;;;;9.43;95.02;99462.59;5074571;28;20736;-78
2024/01/22 09:27:21;;;;;;;1.03;0.63;;;;;;;9.25;96.01;99469.19;5076543;28;20652;-78
2024/01/22 09:29:47;;;;;;;0.40;0.40;;;;;;;9.30;97.57;99445.66;5076793;28;20266;-78
2024/01/22 09:32:16;;;;;;;1.20;0.60;;;;;;;9.30;97.69;99437.84;5076862;28;20236;-78
2024/01/22 09:34:43;;;;;;;0.60;0.57;;;;;;;9.11;99.49;99408.88;5076175;28;20206;-78
2024/01/22 09:37:11;;;;;;;0.93;0.80;;;;;;;8.95;100.00;99395.47;5070271;28;20201;-78
2024/01/22 09:39:37;;;;;;;0.50;0.50;;;;;;;9.00;100.00;99377.97;5076127;28;20212;-78
2024/01/22 09:42:05;;;;;;;1.60;0.77;;;;;;;9.13;100.00;99376.69;5075245;28;20221;-78
2024/01/22 09:44:32;;;;;;;0.90;0.60;;;;;;;9.29;100.00;99368.41;5075363;28;20215;-78
2024/01/22 09:46:59;;;;;;;1.00;0.63;;;;;;;9.24;99.61;99352.09;5072572;28;20231;-78
2024/01/22 09:49:27;;;;;;;0.70;0.60;;;;;;;9.38;98.46;99359.47;5068942;28;20208;-78
2024/01/22 09:51:53;;;;;;;1.20;1.20;;;;;;;9.26;97.46;99382.38;5074836;28;20227;-78
2024/01/22 09:54:20;;;;;;;1.33;0.80;;;;;;;9.44;96.25;99377.50;5074990;28;20620;-78
2024/01/22 09:56:52;;;;;;;1.27;0.77;;;;;;;9.59;94.98;99423.06;5072762;28;20284;-78
2024/01/22 09:59:20;;;;;;;1.55;0.80;;;;;;;9.65;93.46;99451.53;5073518;28;20968;-78
2024/01/22 10:01:48;;;;;;;0.60;0.60;;;;;;;9.81;92.27;99480.56;5074913;28;20229;-77
2024/01/22 10:04:15;;;;;;;1.30;0.60;;;;;;;9.77;91.39;99497.19;5074941;28;20255;-77
2024/01/22 10:06:45;;;;;;;0.90;0.80;;;;;;;9.94;90.84;99508.78;5073600;28;20600;-77
2024/01/22 10:09:14;;;;;;;0.67;0.67;;;;;;;10.00;89.71;99549.47;5069809;28;20202;-77
2024/01/22 10:11:41;;;;;;;0.60;0.50;;;;;;;9.96;89.05;99541.81;5070575;28;20256;-77
2024/01/22 10:14:07;;;;;;;0.50;0.50;;;;;;;9.97;88.32;99574.78;5067604;28;20211;-77
2024/01/22 10:16:36;;;;;;;0.60;0.50;;;;;;;10.15;87.81;99582.06;5081615;28;20201;-77
2024/01/22 10:19:05;;;;;;;1.30;0.57;;;;;;;9.99;87.67;99596.44;5073771;28;20211;-77
2024/01/22 10:21:32;;;;;;;0.67;0.60;;;;;;;10.05;87.76;99591.03;5060109;28;20741;-77
2024/01/22 10:24:00;;;;;;;0.87;0.60;;;;;;;10.17;87.26;99602.84;5073782;28;20243;-77
2024/01/22 10:26:27;;;;;;;0.63;0.63;;;;;;;10.17;86.64;99631.53;5068342;28;20718;-78
2024/01/22 10:28:55;;;;;;;0.77;0.63;;;;;;;10.25;87.20;99611.31;5073353;28;20217;-77
2024/01/22 10:31:21;;;;;;;1.30;0.77;;;;;;;10.31;87.32;99613.75;5074497;28;20258;-78
2024/01/22 10:33:48;;;;;;;2.00;0.50;;;;;;;10.19;87.03;99620.19;5075154;28;20262;-77
2024/01/22 10:36:15;;;;;;;1.37;0.70;;;;;;;10.16;87.08;99622.88;5073096;28;20205;-77
2024/01/22 10:38:42;;;;;;;0.70;0.67;;;;;;;10.28;87.05;99611.19;5074606;28;20217;-78
2024/01/22 10:41:18;;;;;;;1.93;1.00;;;;;;;10.41;86.16;99607.34;5073914;28;20221;-77
2024/01/22 10:43:45;;;;;;;0.73;0.67;;;;;;;10.36;86.05;99639.69;5073165;28;20680;-77
2024/01/22 10:46:12;;;;;;;0.80;0.73;;;;;;;10.18;86.29;99654.97;5073950;28;20232;-78
2024/01/22 10:48:41;;;;;;;1.10;0.70;;;;;;;10.41;85.57;99653.47;5074081;28;20214;-77
2024/01/22 10:51:09;;;;;;;0.90;0.70;;;;;;;10.41;85.31;99669.97;5073603;28;20867;-78
2024/01/22 10:53:36;;;;;;;2.80;0.70;;;;;;;10.48;85.20;99660.19;5073954;28;20208;-77
2024/01/22 10:56:05;;;;;;;0.70;0.50;;;;;;;10.51;85.01;99666.16;5066779;28;20258;-77
2024/01/22 10:58:41;;;;;;;1.10;0.70;;;;;;;10.48;85.28;99668.00;5073209;28;20621;-77
2024/01/22 11:01:13;;;;;;;1.63;0.60;;;;;;;10.48;84.41;99665.41;5074567;28;20338;-78
2024/01/22 11:03:46;;;;;;;1.03;0.80;;;;;;;10.43;84.43;99678.59;5075099;28;20251;-77
2024/01/22 11:06:17;;;;;;;0.60;0.60;;;;;;;10.44;84.48;99674.22;5065033;28;20658;-77
2024/01/22 11:08:44;;;;;;;1.43;0.83;;;;;;;10.34;85.55;99664.06;5080601;28;20579;-77
2024/01/22 11:11:13;;;;;;;0.93;0.70;;;;;;;10.40;85.37;99651.75;5053313;28;20229;-78
2024/01/22 11:13:41;;;;;;;1.00;0.73;;;;;;;10.30;85.80;99657.22;5069325;28;20210;-77
2024/01/22 11:16:08;;;;;;;1.63;0.90;;;;;;;10.40;85.92;99647.38;5073062;28;20447;-78
2024/01/22 11:18:35;;;;;;;2.10;0.93;;;;;;;10.19;88.77;99596.72;5074711;28;20231;-79
2024/01/22 11:21:19;;;;;;;0.87;0.60;;;;;;;10.32;89.71;99556.31;5075399;28;20610;-79
2024/01/22 11:24:10;;;;;;;1.37;0.70;;;;;;;10.36;89.98;99517.09;5074436;28;20215;-79
2024/01/22 11:26:42;;;;;;;1.77;0.80;;;;;;;10.46;89.54;99508.03;5075477;28;20224;-79
2024/01/22 11:29:10;;;;;;;1.57;0.83;;;;;;;10.32;89.33;99524.16;5073034;28;20205;-77
2024/01/22 11:31:38;;;;;;;2.63;0.70;;;;;;;10.49;88.80;99521.00;5073315;28;20236;-78
2024/01/22 11:34:05;;;;;;;0.87;0.60;;;;;;;10.26;87.88;99538.22;5073905;28;20204;-77
2024/01/22 11:36:52;;;;;;;1.33;0.97;;;;;;;10.31;87.38;99527.69;5073141;28;20713;-78